Time;durP1;ratioP1;P1;durP2;ratioP2;P2;SDS_P1;SDS_P2;PMS_P1;PMS_P2;Temp;Humidity;BMP_temperature;BMP_pressure;BME280_temperature;BME280_humidity;BME280_pressure;Samples;Min_cycle;Max_cycle;Signal;HPM_P1;HPM_P2
2023/07/10 00:00:16;;;;;;;0.22;0.22;;;;;;;;;;1039275;28;20028;-71
2023/07/10 00:00:47;;;;;;;0.08;0.08;;;;;;;;;;1039282;28;20029;-72
2023/07/10 00:01:18;;;;;;;0.17;0.17;;;;;;;;;;1040044;28;20014;-72
2023/07/10 00:01:48;;;;;;;2.60;0.57;;;;;;;;;;1042992;28;20424;-71
2023/07/10 00:02:19;;;;;;;0.38;0.32;;;;;;;;;;1043932;28;21520;-71
2023/07/10 00:02:50;;;;;;;0.10;0.10;;;;;;;;;;1039069;28;20022;-71
2023/07/10 00:03:20;;;;;;;0.90;0.63;;;;;;;;;;1039475;28;20529;-71
2023/07/10 00:03:51;;;;;;;1.55;1.45;;;;;;;;;;1038970;28;20021;-71
2023/07/10 00:04:22;;;;;;;1.77;0.30;;;;;;;;;;1039605;28;20018;-71
2023/07/10 00:04:52;;;;;;;0.10;0.10;;;;;;;;;;1043215;28;20029;-71
2023/07/10 00:05:24;;;;;;;0.10;0.10;;;;;;;;;;1043913;28;20492;-71
2023/07/10 00:05:55;;;;;;;1.33;1.23;;;;;;;;;;1042300;28;20060;-71
2023/07/10 00:06:25;;;;;;;0.17;0.17;;;;;;;;;;1042736;28;20385;-71
2023/07/10 00:06:56;;;;;;;0.00;0.00;;;;;;;;;;1043624;28;20119;-71
2023/07/10 00:07:26;;;;;;;0.60;0.50;;;;;;;;;;1043773;28;20078;-71
2023/07/10 00:07:57;;;;;;;0.35;0.10;;;;;;;;;;1043488;28;20029;-71
2023/07/10 00:08:27;;;;;;;0.55;0.35;;;;;;;;;;1044392;28;20443;-71
2023/07/10 00:08:58;;;;;;;0.05;0.05;;;;;;;;;;1044571;28;20043;-71
2023/07/10 00:09:29;;;;;;;0.32;0.30;;;;;;;;;;1044472;28;20111;-71
2023/07/10 00:09:59;;;;;;;0.10;0.10;;;;;;;;;;1043812;28;20491;-71
2023/07/10 00:10:30;;;;;;;0.75;0.50;;;;;;;;;;1044587;28;20029;-71
2023/07/10 00:11:00;;;;;;;0.20;0.20;;;;;;;;;;1040165;28;20021;-71
2023/07/10 00:11:31;;;;;;;0.50;0.50;;;;;;;;;;1040223;28;20021;-71
2023/07/10 00:12:01;;;;;;;0.38;0.38;;;;;;;;;;1039457;28;20033;-71
2023/07/10 00:12:32;;;;;;;0.17;0.17;;;;;;;;;;1040116;28;20445;-71
2023/07/10 00:13:03;;;;;;;0.45;0.45;;;;;;;;;;1039231;28;20025;-71
2023/07/10 00:13:33;;;;;;;0.22;0.22;;;;;;;;;;1040536;28;20113;-71
2023/07/10 00:14:15;;;;;;;1.15;1.08;;;;;;;;;;1044172;28;20017;-71
2023/07/10 00:14:46;;;;;;;0.60;0.60;;;;;;;;;;1044373;28;20025;-71
2023/07/10 00:15:18;;;;;;;0.10;0.10;;;;;;;;;;1040040;28;20465;-72
2023/07/10 00:15:50;;;;;;;0.00;0.00;;;;;;;;;;1039481;28;20084;-72
2023/07/10 00:16:20;;;;;;;0.08;0.05;;;;;;;;;;1040191;28;20029;-72
2023/07/10 00:16:51;;;;;;;1.02;0.88;;;;;;;;;;1040188;28;20416;-72
2023/07/10 00:17:22;;;;;;;0.98;0.93;;;;;;;;;;1044459;28;20028;-72
2023/07/10 00:17:52;;;;;;;0.03;0.03;;;;;;;;;;1044040;28;20025;-72
2023/07/10 00:18:23;;;;;;;0.15;0.15;;;;;;;;;;1044634;28;20083;-72
2023/07/10 00:18:54;;;;;;;0.30;0.30;;;;;;;;;;1039668;28;20021;-72
2023/07/10 00:19:24;;;;;;;0.00;0.00;;;;;;;;;;1039104;28;20025;-72
2023/07/10 00:19:55;;;;;;;0.00;0.00;;;;;;;;;;1039832;28;20524;-72
2023/07/10 00:20:26;;;;;;;1.75;0.45;;;;;;;;;;1040391;28;20128;-72
2023/07/10 00:20:57;;;;;;;0.38;0.38;;;;;;;;;;1044309;28;20457;-72
2023/07/10 00:21:27;;;;;;;0.10;0.10;;;;;;;;;;1044368;28;20032;-72
2023/07/10 00:21:58;;;;;;;0.00;0.00;;;;;;;;;;1044225;28;20323;-72
2023/07/10 00:22:28;;;;;;;0.30;0.30;;;;;;;;;;1044529;28;20028;-72
2023/07/10 00:22:59;;;;;;;0.00;0.00;;;;;;;;;;1044219;28;20029;-72
2023/07/10 00:23:29;;;;;;;0.10;0.10;;;;;;;;;;1044573;28;20013;-72
2023/07/10 00:24:00;;;;;;;0.10;0.10;;;;;;;;;;1044114;28;20040;-72
2023/07/10 00:24:30;;;;;;;1.75;1.08;;;;;;;;;;1039598;28;20021;-72
2023/07/10 00:25:01;;;;;;;0.90;0.90;;;;;;;;;;1039886;28;20580;-72
2023/07/10 00:25:32;;;;;;;0.28;0.20;;;;;;;;;;1040243;28;20044;-72
2023/07/10 00:26:22;;;;;;;2.83;1.67;;;;;;;;;;1039894;28;20033;-72
2023/07/10 00:26:53;;;;;;;0.15;0.15;;;;;;;;;;1043678;28;20033;-72
2023/07/10 00:27:23;;;;;;;0.43;0.43;;;;;;;;;;1044437;28;20112;-72
2023/07/10 00:27:54;;;;;;;0.30;0.30;;;;;;;;;;1040667;28;20851;-72
2023/07/10 00:28:25;;;;;;;0.00;0.00;;;;;;;;;;1043282;28;20464;-72
2023/07/10 00:28:57;;;;;;;0.32;0.32;;;;;;;;;;1043999;28;20472;-72
2023/07/10 00:29:31;;;;;;;0.35;0.35;;;;;;;;;;1044441;28;20104;-72
2023/07/10 00:30:02;;;;;;;1.15;0.70;;;;;;;;;;1044267;28;20071;-72
2023/07/10 00:30:33;;;;;;;0.00;0.00;;;;;;;;;;1043813;28;20031;-72
2023/07/10 00:31:03;;;;;;;0.10;0.10;;;;;;;;;;1044226;28;20602;-72
2023/07/10 00:31:34;;;;;;;1.85;0.47;;;;;;;;;;1044624;28;20025;-72
2023/07/10 00:32:12;;;;;;;0.10;0.10;;;;;;;;;;1041560;28;20024;-72
2023/07/10 00:32:43;;;;;;;0.70;0.47;;;;;;;;;;1041947;28;20024;-72
2023/07/10 00:33:15;;;;;;;0.00;0.00;;;;;;;;;;1041943;28;20112;-72
2023/07/10 00:33:47;;;;;;;0.20;0.20;;;;;;;;;;1042413;28;20029;-72
2023/07/10 00:34:17;;;;;;;1.63;0.52;;;;;;;;;;1043852;28;20032;-72
2023/07/10 00:34:48;;;;;;;1.55;0.57;;;;;;;;;;1043680;28;20028;-72
2023/07/10 00:35:19;;;;;;;0.43;0.38;;;;;;;;;;1044540;28;20473;-72
2023/07/10 00:35:50;;;;;;;4.97;1.65;;;;;;;;;;1044149;28;20381;-72
2023/07/10 00:36:27;;;;;;;0.45;0.45;;;;;;;;;;1039773;28;20021;-72
2023/07/10 00:36:57;;;;;;;4.60;1.75;;;;;;;;;;1039806;28;20508;-72
2023/07/10 00:37:28;;;;;;;0.93;0.93;;;;;;;;;;1040028;28;20017;-72
2023/07/10 00:38:02;;;;;;;7.22;2.42;;;;;;;;;;1040704;28;20029;-72
2023/07/10 00:38:34;;;;;;;4.63;2.78;;;;;;;;;;1044481;28;20025;-72
2023/07/10 00:39:12;;;;;;;5.68;3.55;;;;;;;;;;1039762;28;20501;-72
2023/07/10 00:39:43;;;;;;;7.53;1.85;;;;;;;;;;1037474;28;20532;-72
2023/07/10 00:40:22;;;;;;;4.65;2.67;;;;;;;;;;1037942;28;20025;-72
2023/07/10 00:40:52;;;;;;;1.50;0.85;;;;;;;;;;1039227;28;20057;-72
2023/07/10 00:41:24;;;;;;;3.30;1.90;;;;;;;;;;1041439;28;20037;-72
2023/07/10 00:42:09;;;;;;;3.30;0.88;;;;;;;;;;1043038;28;20090;-72
2023/07/10 00:42:39;;;;;;;0.68;0.68;;;;;;;;;;1043458;28;20017;-72
2023/07/10 00:43:28;;;;;;;2.55;0.98;;;;;;;;;;1044443;28;20037;-72
2023/07/10 00:44:00;;;;;;;0.93;0.93;;;;;;;;;;1043509;28;20447;-72
2023/07/10 00:44:36;;;;;;;0.57;0.57;;;;;;;;;;1039960;28;20026;-72
2023/07/10 00:45:10;;;;;;;3.22;2.08;;;;;;;;;;1039947;28;20040;-72
2023/07/10 00:45:40;;;;;;;0.57;0.57;;;;;;;;;;1038911;28;20021;-72
2023/07/10 00:46:11;;;;;;;0.38;0.32;;;;;;;;;;1041018;28;20014;-72
2023/07/10 00:47:07;;;;;;;1.40;0.55;;;;;;;;;;1044005;28;20068;-72
2023/07/10 00:47:39;;;;;;;0.43;0.43;;;;;;;;;;1019392;29;20027;-72
2023/07/10 00:48:23;;;;;;;0.13;0.13;;;;;;;;;;1025352;28;20031;-72
2023/07/10 00:48:56;;;;;;;1.45;0.32;;;;;;;;;;1044231;28;20040;-72
2023/07/10 00:49:45;;;;;;;0.17;0.17;;;;;;;;;;1043610;28;20020;-72
2023/07/10 00:51:26;;;;;;;1.73;0.73;;;;;;;;;;1051312;28;20393;-72
2023/07/10 00:52:12;;;;;;;0.10;0.10;;;;;;;;;;1050647;28;20098;-72
2023/07/10 00:52:45;;;;;;;1.52;0.30;;;;;;;;;;1046917;28;20379;-72
2023/07/10 00:53:35;;;;;;;1.75;1.23;;;;;;;;;;1047601;28;20476;-72
2023/07/10 00:54:13;;;;;;;0.75;0.73;;;;;;;;;;1046333;28;20059;-72
2023/07/10 00:54:45;;;;;;;0.00;0.00;;;;;;;;;;1043330;28;20036;-72
2023/07/10 00:55:27;;;;;;;0.25;0.03;;;;;;;;;;1043249;28;20041;-72
2023/07/10 00:56:00;;;;;;;0.22;0.20;;;;;;;;;;1044869;28;20745;-72
2023/07/10 00:56:35;;;;;;;0.28;0.28;;;;;;;;;;1047877;28;20020;-72
2023/07/10 00:57:10;;;;;;;0.10;0.10;;;;;;;;;;1046858;28;20131;-72
2023/07/10 00:57:42;;;;;;;0.50;0.40;;;;;;;;;;1042831;28;20520;-72
2023/07/10 00:58:23;;;;;;;5.65;1.52;;;;;;;;;;1043121;28;20408;-72
2023/07/10 00:58:53;;;;;;;0.00;0.00;;;;;;;;;;1043073;28;20378;-72
2023/07/10 00:59:28;;;;;;;0.63;0.28;;;;;;;;;;1047845;28;20112;-72
2023/07/10 00:59:59;;;;;;;0.50;0.22;;;;;;;;;;1046822;28;20036;-72
2023/07/10 01:00:30;;;;;;;0.38;0.38;;;;;;;;;;1046988;28;20083;-72
2023/07/10 01:01:08;;;;;;;0.57;0.32;;;;;;;;;;1046994;28;20020;-72
2023/07/10 01:01:59;;;;;;;0.13;0.13;;;;;;;;;;1046979;28;20025;-72
2023/07/10 01:02:29;;;;;;;1.23;0.95;;;;;;;;;;1047286;28;20032;-72
2023/07/10 01:03:00;;;;;;;0.05;0.05;;;;;;;;;;1047373;28;20021;-72
2023/07/10 01:03:30;;;;;;;1.45;1.27;;;;;;;;;;1047796;28;20473;-72
2023/07/10 01:04:02;;;;;;;0.65;0.47;;;;;;;;;;1046782;28;20613;-72
2023/07/10 01:04:33;;;;;;;1.27;1.00;;;;;;;;;;1047343;28;20598;-72
2023/07/10 01:05:04;;;;;;;0.50;0.50;;;;;;;;;;1047115;28;20058;-72
2023/07/10 01:05:35;;;;;;;0.00;0.00;;;;;;;;;;1047179;28;20021;-72
2023/07/10 01:06:11;;;;;;;0.30;0.28;;;;;;;;;;1047057;28;20025;-72
2023/07/10 01:06:41;;;;;;;0.45;0.45;;;;;;;;;;1047153;28;20048;-72
2023/07/10 01:07:13;;;;;;;0.00;0.00;;;;;;;;;;1047277;28;20033;-72
2023/07/10 01:07:46;;;;;;;0.30;0.30;;;;;;;;;;1046938;28;20405;-72
2023/07/10 01:08:17;;;;;;;8.00;1.95;;;;;;;;;;1043374;28;20504;-72
2023/07/10 01:08:57;;;;;;;0.10;0.10;;;;;;;;;;1043022;28;20049;-72
2023/07/10 01:09:28;;;;;;;0.50;0.50;;;;;;;;;;1045029;28;20029;-72
2023/07/10 01:10:08;;;;;;;0.20;0.17;;;;;;;;;;1043964;28;20017;-72
2023/07/10 01:10:39;;;;;;;0.10;0.10;;;;;;;;;;1046092;28;20040;-72
2023/07/10 01:11:09;;;;;;;0.25;0.25;;;;;;;;;;1046147;28;20104;-72
2023/07/10 01:11:41;;;;;;;1.17;0.73;;;;;;;;;;1047102;28;20025;-72
2023/07/10 01:12:12;;;;;;;2.63;0.13;;;;;;;;;;1047030;28;20024;-72
2023/07/10 01:12:43;;;;;;;0.20;0.20;;;;;;;;;;1047195;28;20067;-72
2023/07/10 01:13:14;;;;;;;0.13;0.13;;;;;;;;;;1047219;28;20123;-72
2023/07/10 01:13:46;;;;;;;0.20;0.20;;;;;;;;;;1047030;28;20043;-72
2023/07/10 01:14:17;;;;;;;0.43;0.28;;;;;;;;;;1047577;28;20383;-72
2023/07/10 01:14:47;;;;;;;0.98;0.90;;;;;;;;;;1047571;28;20017;-72
2023/07/10 01:15:18;;;;;;;0.70;0.38;;;;;;;;;;1047165;28;20020;-72
2023/07/10 01:15:48;;;;;;;0.43;0.30;;;;;;;;;;1042679;28;20017;-72
2023/07/10 01:16:19;;;;;;;0.00;0.00;;;;;;;;;;1043060;28;20032;-72
2023/07/10 01:16:50;;;;;;;0.57;0.55;;;;;;;;;;1042668;28;20029;-72
2023/07/10 01:17:20;;;;;;;1.77;1.67;;;;;;;;;;1047126;28;20027;-73
2023/07/10 01:17:51;;;;;;;0.93;0.30;;;;;;;;;;1046289;28;20021;-72
2023/07/10 01:18:24;;;;;;;0.73;0.73;;;;;;;;;;1046917;28;20070;-72
2023/07/10 01:18:55;;;;;;;0.22;0.22;;;;;;;;;;1046410;28;20033;-72
2023/07/10 01:19:25;;;;;;;0.10;0.10;;;;;;;;;;1051454;28;20019;-72
2023/07/10 01:20:00;;;;;;;0.57;0.57;;;;;;;;;;1050530;28;20119;-73
2023/07/10 01:20:43;;;;;;;0.10;0.10;;;;;;;;;;1046434;28;20044;-72
2023/07/10 01:21:27;;;;;;;0.10;0.10;;;;;;;;;;1046189;28;20029;-73
2023/07/10 01:21:57;;;;;;;0.03;0.03;;;;;;;;;;1046751;28;20495;-73
2023/07/10 01:22:28;;;;;;;1.45;0.50;;;;;;;;;;1047322;28;20025;-73
2023/07/10 01:23:00;;;;;;;0.63;0.55;;;;;;;;;;1045398;28;20123;-73
2023/07/10 01:23:30;;;;;;;1.88;0.80;;;;;;;;;;1046920;28;20472;-73
2023/07/10 01:24:03;;;;;;;0.08;0.08;;;;;;;;;;1046591;28;20008;-73
2023/07/10 01:24:34;;;;;;;0.10;0.10;;;;;;;;;;1046086;28;20062;-73
2023/07/10 01:25:05;;;;;;;0.20;0.17;;;;;;;;;;1046042;28;20025;-73
2023/07/10 01:25:39;;;;;;;0.00;0.00;;;;;;;;;;1046948;28;20504;-73
2023/07/10 01:26:09;;;;;;;1.00;0.38;;;;;;;;;;1047280;28;20446;-73
2023/07/10 01:26:40;;;;;;;4.32;0.57;;;;;;;;;;1046056;28;20129;-73
2023/07/10 01:27:12;;;;;;;0.55;0.55;;;;;;;;;;1045589;28;20024;-73
2023/07/10 01:27:43;;;;;;;0.57;0.57;;;;;;;;;;1045043;28;20400;-73
2023/07/10 01:28:16;;;;;;;0.45;0.20;;;;;;;;;;1046262;28;20044;-73
2023/07/10 01:28:46;;;;;;;0.20;0.20;;;;;;;;;;1046375;28;20026;-73
2023/07/10 01:29:17;;;;;;;3.67;1.55;;;;;;;;;;1046704;28;20025;-73
2023/07/10 01:30:07;;;;;;;2.90;1.70;;;;;;;;;;1046326;28;20024;-73
2023/07/10 01:30:39;;;;;;;0.28;0.28;;;;;;;;;;1046570;28;20032;-73
2023/07/10 01:31:12;;;;;;;2.67;0.73;;;;;;;;;;1046946;28;20075;-73
2023/07/10 01:31:42;;;;;;;1.17;0.82;;;;;;;;;;1045374;28;20032;-73
2023/07/10 01:32:14;;;;;;;3.63;0.90;;;;;;;;;;1045565;28;20024;-73
2023/07/10 01:32:45;;;;;;;0.20;0.20;;;;;;;;;;1047043;28;20428;-73
2023/07/10 01:33:19;;;;;;;0.60;0.52;;;;;;;;;;1047377;28;20024;-73
2023/07/10 01:33:51;;;;;;;0.22;0.22;;;;;;;;;;1045710;28;20035;-73
2023/07/10 01:34:24;;;;;;;0.10;0.10;;;;;;;;;;1047407;28;20012;-73
2023/07/10 01:35:00;;;;;;;0.05;0.05;;;;;;;;;;1047088;28;20020;-73
2023/07/10 01:35:32;;;;;;;0.30;0.10;;;;;;;;;;1045280;28;20027;-73
2023/07/10 01:36:03;;;;;;;0.30;0.30;;;;;;;;;;1046584;28;20369;-73
2023/07/10 01:36:35;;;;;;;1.45;0.43;;;;;;;;;;1046820;28;20071;-73
2023/07/10 01:37:07;;;;;;;0.05;0.05;;;;;;;;;;1047424;28;20411;-73
2023/07/10 01:37:37;;;;;;;0.30;0.30;;;;;;;;;;1047013;28;20039;-73
2023/07/10 01:38:11;;;;;;;0.05;0.05;;;;;;;;;;1047108;28;20113;-73
2023/07/10 01:38:43;;;;;;;0.88;0.70;;;;;;;;;;1045329;28;20024;-73
2023/07/10 01:39:14;;;;;;;0.00;0.00;;;;;;;;;;1046315;28;20016;-73
2023/07/10 01:39:46;;;;;;;0.10;0.10;;;;;;;;;;1044732;28;20040;-73
2023/07/10 01:40:20;;;;;;;0.22;0.22;;;;;;;;;;1047288;28;20031;-73
2023/07/10 01:40:52;;;;;;;1.55;1.08;;;;;;;;;;1046988;28;20448;-73
2023/07/10 01:41:22;;;;;;;0.43;0.43;;;;;;;;;;1047295;28;20056;-73
2023/07/10 01:41:53;;;;;;;2.65;1.48;;;;;;;;;;1047139;28;20016;-73
2023/07/10 01:42:23;;;;;;;0.17;0.17;;;;;;;;;;1046766;28;20116;-73
2023/07/10 01:42:57;;;;;;;2.83;0.70;;;;;;;;;;1046780;28;20017;-73
2023/07/10 01:43:28;;;;;;;0.00;0.00;;;;;;;;;;1042681;28;20048;-73
2023/07/10 01:43:58;;;;;;;0.00;0.00;;;;;;;;;;1042360;28;20052;-73
2023/07/10 01:44:31;;;;;;;0.25;0.17;;;;;;;;;;1043610;28;20032;-72
2023/07/10 01:45:02;;;;;;;0.50;0.50;;;;;;;;;;1040020;28;20507;-72
2023/07/10 01:45:40;;;;;;;0.47;0.47;;;;;;;;;;1042508;28;20055;-72
2023/07/10 01:46:24;;;;;;;12.63;1.00;;;;;;;;;;1044447;28;20023;-72
2023/07/10 01:46:55;;;;;;;0.00;0.00;;;;;;;;;;1041003;28;20017;-72
2023/07/10 01:47:26;;;;;;;9.85;1.35;;;;;;;;;;1043451;28;20551;-72
2023/07/10 01:47:56;;;;;;;0.32;0.32;;;;;;;;;;1043158;28;20033;-72
2023/07/10 01:48:27;;;;;;;0.10;0.10;;;;;;;;;;1043696;28;20159;-73
2023/07/10 01:49:00;;;;;;;0.28;0.28;;;;;;;;;;1045548;28;20024;-73
2023/07/10 01:49:36;;;;;;;0.03;0.03;;;;;;;;;;1046434;28;20052;-73
2023/07/10 01:50:07;;;;;;;0.55;0.55;;;;;;;;;;1046933;28;20032;-73
2023/07/10 01:50:37;;;;;;;2.03;1.15;;;;;;;;;;1047614;28;20035;-73
2023/07/10 01:51:08;;;;;;;2.90;0.90;;;;;;;;;;1046892;28;20036;-73
2023/07/10 01:51:38;;;;;;;0.20;0.20;;;;;;;;;;1047255;28;20090;-73
2023/07/10 01:52:10;;;;;;;0.03;0.03;;;;;;;;;;1046600;28;20021;-73
2023/07/10 01:52:40;;;;;;;0.93;0.93;;;;;;;;;;1042903;28;20469;-73
2023/07/10 01:53:11;;;;;;;1.08;0.32;;;;;;;;;;1042031;28;20052;-73
2023/07/10 01:53:44;;;;;;;0.68;0.55;;;;;;;;;;1042959;28;20503;-73
2023/07/10 01:54:16;;;;;;;0.00;0.00;;;;;;;;;;1046613;28;20393;-73
2023/07/10 01:54:47;;;;;;;0.63;0.52;;;;;;;;;;1046195;28;20435;-72
2023/07/10 01:55:18;;;;;;;0.10;0.10;;;;;;;;;;1047329;28;20040;-72
2023/07/10 01:55:49;;;;;;;1.13;0.70;;;;;;;;;;1046349;28;20024;-72
2023/07/10 01:56:20;;;;;;;0.20;0.00;;;;;;;;;;1046995;28;20105;-72
2023/07/10 01:56:52;;;;;;;0.10;0.10;;;;;;;;;;1046640;28;20459;-72
2023/07/10 01:57:23;;;;;;;0.88;0.30;;;;;;;;;;1047225;28;20029;-72
2023/07/10 01:57:54;;;;;;;0.20;0.20;;;;;;;;;;1046122;28;20033;-72
2023/07/10 01:58:24;;;;;;;0.28;0.28;;;;;;;;;;1045824;28;20388;-72
2023/07/10 01:58:55;;;;;;;0.00;0.00;;;;;;;;;;1046888;28;20036;-72
2023/07/10 01:59:25;;;;;;;0.73;0.38;;;;;;;;;;1047414;28;20079;-72
2023/07/10 01:59:56;;;;;;;0.15;0.15;;;;;;;;;;1045682;28;20585;-72
2023/07/10 02:00:27;;;;;;;0.30;0.30;;;;;;;;;;1046631;28;20499;-72
2023/07/10 02:00:57;;;;;;;0.22;0.22;;;;;;;;;;1046995;28;20051;-72
2023/07/10 02:01:28;;;;;;;0.10;0.10;;;;;;;;;;1047315;28;20056;-72
2023/07/10 02:01:59;;;;;;;0.73;0.65;;;;;;;;;;1046337;28;21208;-72
2023/07/10 02:02:29;;;;;;;0.47;0.20;;;;;;;;;;1044057;28;20036;-72
2023/07/10 02:03:00;;;;;;;3.60;1.75;;;;;;;;;;1042717;28;20029;-72
2023/07/10 02:03:30;;;;;;;0.20;0.20;;;;;;;;;;1044030;28;20088;-72
2023/07/10 02:04:01;;;;;;;0.80;0.80;;;;;;;;;;1044077;28;20025;-72
2023/07/10 02:04:32;;;;;;;0.47;0.47;;;;;;;;;;1044199;28;20036;-72
2023/07/10 02:05:02;;;;;;;0.35;0.35;;;;;;;;;;1044102;28;20048;-72
2023/07/10 02:05:33;;;;;;;1.02;0.47;;;;;;;;;;1043782;28;20511;-72
2023/07/10 02:06:04;;;;;;;1.67;0.30;;;;;;;;;;1041546;28;20029;-72
2023/07/10 02:06:35;;;;;;;0.00;0.00;;;;;;;;;;1044087;28;20488;-72
2023/07/10 02:07:06;;;;;;;0.45;0.15;;;;;;;;;;1044296;28;20396;-72
2023/07/10 02:07:36;;;;;;;0.20;0.20;;;;;;;;;;1044302;28;20048;-72
2023/07/10 02:08:07;;;;;;;2.65;1.00;;;;;;;;;;1043434;28;20417;-72
2023/07/10 02:08:37;;;;;;;0.13;0.10;;;;;;;;;;1044205;28;20202;-72
2023/07/10 02:09:08;;;;;;;0.00;0.00;;;;;;;;;;1043665;28;20115;-72
2023/07/10 02:09:38;;;;;;;1.15;0.52;;;;;;;;;;1044366;28;20043;-72
2023/07/10 02:10:09;;;;;;;0.85;0.55;;;;;;;;;;1043989;28;20025;-72
2023/07/10 02:10:39;;;;;;;1.50;0.77;;;;;;;;;;1043891;28;20036;-72
2023/07/10 02:11:11;;;;;;;0.32;0.25;;;;;;;;;;1043311;28;20028;-72
2023/07/10 02:11:42;;;;;;;0.05;0.05;;;;;;;;;;1041906;28;20365;-72
2023/07/10 02:12:12;;;;;;;0.30;0.30;;;;;;;;;;1041465;28;20055;-72
2023/07/10 02:12:43;;;;;;;0.00;0.00;;;;;;;;;;1042196;28;20025;-72
2023/07/10 02:13:13;;;;;;;0.00;0.00;;;;;;;;;;1044343;28;20108;-72
2023/07/10 02:13:44;;;;;;;0.82;0.60;;;;;;;;;;1043458;28;20400;-72
2023/07/10 02:14:14;;;;;;;0.60;0.32;;;;;;;;;;1043635;28;20106;-72
2023/07/10 02:14:45;;;;;;;0.05;0.05;;;;;;;;;;1043430;28;20029;-72
2023/07/10 02:15:15;;;;;;;0.15;0.15;;;;;;;;;;1043322;28;20021;-72
2023/07/10 02:15:46;;;;;;;0.10;0.10;;;;;;;;;;1043810;28;20076;-72
2023/07/10 02:16:17;;;;;;;1.80;0.90;;;;;;;;;;1042775;28;20017;-72
2023/07/10 02:16:48;;;;;;;0.32;0.20;;;;;;;;;;1043625;28;20482;-72
2023/07/10 02:17:18;;;;;;;0.00;0.00;;;;;;;;;;1043822;28;20025;-72
2023/07/10 02:17:49;;;;;;;0.57;0.20;;;;;;;;;;1044042;28;20029;-72
2023/07/10 02:18:19;;;;;;;0.20;0.20;;;;;;;;;;1044544;28;20031;-72
2023/07/10 02:18:50;;;;;;;0.30;0.30;;;;;;;;;;1043904;28;20078;-72
2023/07/10 02:19:21;;;;;;;0.17;0.08;;;;;;;;;;1044440;28;20021;-72
2023/07/10 02:19:51;;;;;;;1.58;1.48;;;;;;;;;;1043363;28;20029;-72
2023/07/10 02:20:22;;;;;;;0.85;0.73;;;;;;;;;;1044307;28;20016;-72
2023/07/10 02:20:53;;;;;;;0.30;0.30;;;;;;;;;;1043691;28;20028;-72
2023/07/10 02:21:24;;;;;;;0.73;0.73;;;;;;;;;;1043340;28;20028;-72
2023/07/10 02:21:55;;;;;;;0.60;0.43;;;;;;;;;;1043230;28;20591;-72
2023/07/10 02:22:26;;;;;;;0.20;0.20;;;;;;;;;;1043907;28;20009;-72
2023/07/10 02:22:56;;;;;;;0.47;0.47;;;;;;;;;;1043181;28;20120;-72
2023/07/10 02:23:27;;;;;;;0.98;0.85;;;;;;;;;;1043543;28;20032;-72
2023/07/10 02:23:58;;;;;;;0.38;0.38;;;;;;;;;;1042106;28;20124;-72
2023/07/10 02:24:28;;;;;;;0.82;0.68;;;;;;;;;;1043390;28;21248;-72
2023/07/10 02:24:59;;;;;;;1.38;0.70;;;;;;;;;;1043598;28;20021;-72
2023/07/10 02:25:29;;;;;;;0.00;0.00;;;;;;;;;;1042836;28;20031;-72
2023/07/10 02:26:00;;;;;;;0.00;0.00;;;;;;;;;;1042993;28;20032;-72
2023/07/10 02:26:30;;;;;;;0.10;0.00;;;;;;;;;;1042714;28;20527;-72
2023/07/10 02:27:01;;;;;;;0.00;0.00;;;;;;;;;;1043532;28;20053;-72
2023/07/10 02:27:31;;;;;;;0.00;0.00;;;;;;;;;;1043942;28;20035;-72
2023/07/10 02:28:02;;;;;;;0.45;0.43;;;;;;;;;;1042585;28;20514;-72
2023/07/10 02:28:32;;;;;;;0.60;0.40;;;;;;;;;;1044072;28;20033;-72
2023/07/10 02:29:03;;;;;;;0.00;0.00;;;;;;;;;;1043834;28;20021;-72
2023/07/10 02:29:33;;;;;;;3.30;1.38;;;;;;;;;;1043737;28;20028;-72
2023/07/10 02:30:04;;;;;;;1.17;1.02;;;;;;;;;;1043558;28;20104;-72
2023/07/10 02:30:37;;;;;;;0.55;0.55;;;;;;;;;;1044074;28;20032;-72
2023/07/10 02:31:07;;;;;;;0.73;0.20;;;;;;;;;;1042376;28;20489;-72
2023/07/10 02:31:38;;;;;;;0.55;0.35;;;;;;;;;;1043787;28;20071;-72
2023/07/10 02:32:08;;;;;;;0.13;0.13;;;;;;;;;;1043211;28;20111;-72
2023/07/10 02:32:39;;;;;;;0.52;0.52;;;;;;;;;;1043726;28;20029;-72
2023/07/10 02:33:09;;;;;;;0.00;0.00;;;;;;;;;;1043987;28;20055;-72
2023/07/10 02:33:40;;;;;;;4.68;0.47;;;;;;;;;;1043543;28;20093;-72
2023/07/10 02:34:10;;;;;;;0.20;0.20;;;;;;;;;;1043481;28;20035;-72
2023/07/10 02:34:41;;;;;;;0.38;0.30;;;;;;;;;;1043808;28;20115;-72
2023/07/10 02:35:13;;;;;;;0.00;0.00;;;;;;;;;;1042266;28;20586;-72
2023/07/10 02:35:43;;;;;;;0.10;0.10;;;;;;;;;;1040579;28;20067;-72
2023/07/10 02:36:14;;;;;;;0.43;0.43;;;;;;;;;;1040399;28;20632;-72
2023/07/10 02:36:45;;;;;;;0.20;0.10;;;;;;;;;;1043094;28;20455;-72
2023/07/10 02:37:15;;;;;;;0.38;0.28;;;;;;;;;;1042184;28;20431;-72
2023/07/10 02:37:46;;;;;;;0.45;0.43;;;;;;;;;;1042186;28;20094;-73
2023/07/10 02:38:16;;;;;;;0.55;0.55;;;;;;;;;;1044685;28;20028;-73
2023/07/10 02:38:48;;;;;;;0.10;0.10;;;;;;;;;;1047809;28;20028;-73
2023/07/10 02:39:18;;;;;;;0.38;0.38;;;;;;;;;;1043400;28;20119;-73
2023/07/10 02:39:49;;;;;;;0.00;0.00;;;;;;;;;;1043245;28;20558;-73
2023/07/10 02:40:19;;;;;;;0.28;0.28;;;;;;;;;;1043296;28;20111;-73
2023/07/10 02:40:50;;;;;;;0.55;0.45;;;;;;;;;;1042293;28;20078;-73
2023/07/10 02:41:20;;;;;;;0.00;0.00;;;;;;;;;;1042652;28;20040;-73
2023/07/10 02:41:51;;;;;;;0.30;0.22;;;;;;;;;;1047382;28;20159;-73
2023/07/10 02:42:23;;;;;;;0.30;0.30;;;;;;;;;;1047879;28;20094;-73
2023/07/10 02:42:53;;;;;;;0.30;0.30;;;;;;;;;;1044630;28;20033;-72
2023/07/10 02:43:24;;;;;;;0.25;0.20;;;;;;;;;;1043841;28;20020;-73
2023/07/10 02:43:54;;;;;;;0.00;0.00;;;;;;;;;;1042428;28;20136;-73
2023/07/10 02:44:25;;;;;;;0.10;0.10;;;;;;;;;;1043320;28;20542;-73
2023/07/10 02:44:55;;;;;;;0.70;0.55;;;;;;;;;;1043730;28;20024;-73
2023/07/10 02:45:26;;;;;;;0.25;0.25;;;;;;;;;;1041210;28;20383;-72
2023/07/10 02:45:57;;;;;;;0.17;0.10;;;;;;;;;;1042705;28;20112;-72
2023/07/10 02:46:27;;;;;;;0.00;0.00;;;;;;;;;;1043135;28;20036;-72
2023/07/10 02:46:58;;;;;;;0.00;0.00;;;;;;;;;;1044014;28;20498;-73
2023/07/10 02:47:28;;;;;;;0.17;0.10;;;;;;;;;;1044020;28;20396;-73
2023/07/10 02:47:59;;;;;;;0.35;0.28;;;;;;;;;;1043774;28;20677;-73
2023/07/10 02:48:29;;;;;;;0.65;0.65;;;;;;;;;;1043491;28;20025;-73
2023/07/10 02:49:00;;;;;;;0.10;0.10;;;;;;;;;;1043910;28;20147;-73
2023/07/10 02:49:30;;;;;;;0.17;0.13;;;;;;;;;;1043898;28;20032;-73
2023/07/10 02:50:01;;;;;;;0.10;0.03;;;;;;;;;;1044496;28;20064;-73
2023/07/10 02:50:32;;;;;;;0.73;0.65;;;;;;;;;;1043418;28;20075;-73
2023/07/10 02:51:02;;;;;;;0.10;0.10;;;;;;;;;;1043811;28;20040;-73
2023/07/10 02:51:33;;;;;;;0.00;0.00;;;;;;;;;;1043603;28;20420;-73
2023/07/10 02:52:03;;;;;;;0.73;0.73;;;;;;;;;;1042965;28;20112;-73
2023/07/10 02:52:34;;;;;;;8.00;1.90;;;;;;;;;;1043043;28;20083;-73
2023/07/10 02:53:04;;;;;;;0.30;0.22;;;;;;;;;;1042612;28;20386;-73
2023/07/10 02:53:35;;;;;;;0.20;0.20;;;;;;;;;;1044054;28;20056;-73
2023/07/10 02:54:12;;;;;;;0.30;0.30;;;;;;;;;;1042819;28;20594;-73
2023/07/10 02:54:43;;;;;;;3.00;1.55;;;;;;;;;;1043178;28;20021;-73
2023/07/10 02:55:13;;;;;;;0.10;0.00;;;;;;;;;;1043774;28;20171;-73
2023/07/10 02:55:44;;;;;;;0.68;0.15;;;;;;;;;;1043355;28;20028;-73
2023/07/10 02:56:14;;;;;;;0.45;0.35;;;;;;;;;;1043824;28;20060;-73
2023/07/10 02:56:45;;;;;;;0.05;0.05;;;;;;;;;;1042836;28;20052;-73
2023/07/10 02:57:15;;;;;;;0.28;0.20;;;;;;;;;;1047081;28;20480;-73
2023/07/10 02:57:46;;;;;;;5.57;0.38;;;;;;;;;;1043087;28;20116;-73
2023/07/10 02:58:17;;;;;;;2.45;1.75;;;;;;;;;;1043181;28;20435;-73
2023/07/10 02:58:51;;;;;;;0.10;0.05;;;;;;;;;;1038817;28;20063;-73
2023/07/10 02:59:26;;;;;;;0.10;0.10;;;;;;;;;;1039795;28;20148;-73
2023/07/10 02:59:56;;;;;;;1.25;0.35;;;;;;;;;;1043763;28;20021;-73
2023/07/10 03:00:27;;;;;;;5.05;0.75;;;;;;;;;;1043876;28;20049;-73
2023/07/10 03:00:59;;;;;;;0.50;0.50;;;;;;;;;;1044133;28;20116;-73
2023/07/10 03:01:29;;;;;;;0.10;0.10;;;;;;;;;;1043576;28;20115;-73
2023/07/10 03:02:00;;;;;;;1.08;0.32;;;;;;;;;;1043558;28;20016;-73
2023/07/10 03:02:30;;;;;;;0.52;0.30;;;;;;;;;;1043871;28;20071;-73
2023/07/10 03:03:01;;;;;;;0.22;0.15;;;;;;;;;;1043979;28;20060;-73
2023/07/10 03:03:31;;;;;;;0.00;0.00;;;;;;;;;;1043778;28;20419;-73
2023/07/10 03:04:02;;;;;;;1.55;1.45;;;;;;;;;;1043429;28;20476;-73
2023/07/10 03:04:33;;;;;;;1.42;0.35;;;;;;;;;;1044317;28;20031;-73
2023/07/10 03:05:03;;;;;;;0.00;0.00;;;;;;;;;;1043724;28;20025;-73
2023/07/10 03:05:34;;;;;;;5.70;0.88;;;;;;;;;;1043782;28;20052;-73
2023/07/10 03:06:04;;;;;;;0.10;0.10;;;;;;;;;;1043539;28;20115;-73
2023/07/10 03:06:35;;;;;;;0.00;0.00;;;;;;;;;;1043051;28;20025;-73
2023/07/10 03:07:05;;;;;;;0.45;0.40;;;;;;;;;;1044006;28;20075;-73
2023/07/10 03:07:36;;;;;;;0.52;0.52;;;;;;;;;;1044052;28;20583;-73
2023/07/10 03:08:07;;;;;;;0.30;0.30;;;;;;;;;;1044125;28;20021;-73
2023/07/10 03:08:37;;;;;;;4.13;1.80;;;;;;;;;;1043135;28;20033;-73
2023/07/10 03:09:08;;;;;;;0.10;0.10;;;;;;;;;;1043501;28;20029;-73
2023/07/10 03:09:38;;;;;;;2.65;1.15;;;;;;;;;;1043334;28;20021;-73
2023/07/10 03:10:09;;;;;;;1.75;0.43;;;;;;;;;;1042092;28;20021;-73
2023/07/10 03:10:40;;;;;;;2.22;0.75;;;;;;;;;;1028694;28;20032;-72
2023/07/10 03:11:12;;;;;;;0.00;0.00;;;;;;;;;;1033817;28;20052;-73
2023/07/10 03:11:43;;;;;;;0.28;0.22;;;;;;;;;;1043647;28;20443;-73
2023/07/10 03:12:13;;;;;;;1.13;0.60;;;;;;;;;;1040424;28;20075;-73
2023/07/10 03:12:44;;;;;;;0.00;0.00;;;;;;;;;;1043728;28;20033;-73